Aérodrome :
LOGIN :

Register | Disclaimer

   EN    FR    IT 

 

















- Airport Elevation : 512 ft
- IATA code : URO
- Download approach charts


LFOP - Rouen Vallée de Seine

CURRENT METAR :
  • 201400Z AUTO 19009KT CAVOK 18/09 Q1021 NOSIG

EXPIRED METARs :
  • 201330Z AUTO 20009KT CAVOK 18/11 Q1021 NOSIG
  • 201300Z AUTO 21008KT CAVOK 18/09 Q1021 NOSIG
  • 201230Z AUTO 21007KT CAVOK 17/08 Q1022 NOSIG
  • 201200Z AUTO 20005KT CAVOK 14/09 Q1022 NOSIG
  • 201130Z AUTO 21006KT 9999 SCT035 OVC056 14/09 Q1022 NOSIG

TAF TAF LFOP
Valid from the 20 at 12:00 until the 21 at 12:00 UTC


201100Z 2012/2112 21007KT 9999 SCT035
BECMG 2108/2110 15010KT
ATIS : +33 2 35 80 80 34
Met : +33 2 32 86 52 80
No reported NOTAMs for that airfield.





SOURCES & CREDITS :

   NOAA